Main page
METAR-TAF:

METAR-TAF

Airports :

Sir Seewoosagur Ramgoolam International Airport

Mauritius, Mauritius

latitude: 20-26S, longitude: 057-40E, elevation: 55 m

Current weather observation

The report was made 1 hour and 5 minutes ago, at 08:00 UTC
Wind 13 kt from the East
Temperature 24°C
Humidity 69%
Pressure 1022 hPa
Visibility 10 km or more
Broken clouds at a height of 1800 ft

METAR: FIMP 210800Z 08013KT 9999 BKN018 24/18 Q1022

Time: 13:05 (09:05 UTC)

Forecast

The report was made 2 hours and 5 minutes ago, at 07:00 UTC
Forecast valid from 21 at 07 UTC to 22 at 12 UTC
Wind 15 kt from the East with gusts up to 25 kt
Visibility 10 km or more
Scattered clouds at a height of 1700 ft

TAF: FIMP 210700Z 2107/2212 10015G25KT 9999 SCT017

Weather observations and forecasts of more than 4000 airports (METAR and TAF reports).

The available stations are represented by yellow and red dots on the map.

Hover mouse over dot to see the name of the station.

Then click to see weather observations and forecasts.

To change the map : click on the green buttons with a black cross to zoom in, on the green button with a dash to zoom out, or on the green arrows for adjacent maps.


METAR-TAF: